sensor_id;sensor_type;location;lat;lon;timestamp;P1;durP1;ratioP1;P2;durP2;ratioP2
84879;SDS011;75141;51.398;21.154;2024-01-10T00:00:07;124.45;;;42.80;;
84879;SDS011;75141;51.398;21.154;2024-01-10T00:01:09;158.50;;;61.08;;
84879;SDS011;75141;51.398;21.154;2024-01-10T00:02:19;135.35;;;49.42;;
84879;SDS011;75141;51.398;21.154;2024-01-10T00:03:20;110.90;;;39.95;;
84879;SDS011;75141;51.398;21.154;2024-01-10T00:04:21;108.78;;;40.13;;
84879;SDS011;75141;51.398;21.154;2024-01-10T00:05:22;141.18;;;51.00;;
84879;SDS011;75141;51.398;21.154;2024-01-10T00:06:23;120.07;;;41.92;;
84879;SDS011;75141;51.398;21.154;2024-01-10T00:07:24;98.63;;;35.30;;
84879;SDS011;75141;51.398;21.154;2024-01-10T00:08:25;106.05;;;35.40;;
84879;SDS011;75141;51.398;21.154;2024-01-10T00:09:25;102.88;;;35.10;;
84879;SDS011;75141;51.398;21.154;2024-01-10T00:10:26;92.00;;;36.83;;
84879;SDS011;75141;51.398;21.154;2024-01-10T00:11:27;100.05;;;37.90;;
84879;SDS011;75141;51.398;21.154;2024-01-10T00:12:28;117.95;;;42.22;;
84879;SDS011;75141;51.398;21.154;2024-01-10T00:13:36;101.32;;;36.85;;
84879;SDS011;75141;51.398;21.154;2024-01-10T00:14:37;110.40;;;41.63;;
84879;SDS011;75141;51.398;21.154;2024-01-10T00:15:38;121.18;;;39.80;;
84879;SDS011;75141;51.398;21.154;2024-01-10T00:16:39;107.60;;;36.65;;
84879;SDS011;75141;51.398;21.154;2024-01-10T00:17:40;104.38;;;37.38;;
84879;SDS011;75141;51.398;21.154;2024-01-10T00:18:41;104.72;;;35.63;;
84879;SDS011;75141;51.398;21.154;2024-01-10T00:19:42;101.43;;;35.25;;
84879;SDS011;75141;51.398;21.154;2024-01-10T00:20:43;109.65;;;37.63;;
84879;SDS011;75141;51.398;21.154;2024-01-10T00:21:43;119.10;;;38.55;;
84879;SDS011;75141;51.398;21.154;2024-01-10T00:22:56;109.10;;;36.85;;
84879;SDS011;75141;51.398;21.154;2024-01-10T00:24:07;95.32;;;33.70;;
84879;SDS011;75141;51.398;21.154;2024-01-10T00:25:07;104.82;;;38.90;;
84879;SDS011;75141;51.398;21.154;2024-01-10T00:26:08;119.75;;;39.65;;
84879;SDS011;75141;51.398;21.154;2024-01-10T00:27:09;109.78;;;37.30;;
84879;SDS011;75141;51.398;21.154;2024-01-10T00:28:10;103.88;;;35.17;;
84879;SDS011;75141;51.398;21.154;2024-01-10T00:29:11;106.10;;;35.35;;
84879;SDS011;75141;51.398;21.154;2024-01-10T00:30:12;99.97;;;34.08;;
84879;SDS011;75141;51.398;21.154;2024-01-10T00:31:13;95.47;;;34.33;;
84879;SDS011;75141;51.398;21.154;2024-01-10T00:32:14;92.63;;;32.50;;
84879;SDS011;75141;51.398;21.154;2024-01-10T00:33:15;93.32;;;31.65;;
84879;SDS011;75141;51.398;21.154;2024-01-10T00:34:16;94.38;;;32.90;;
84879;SDS011;75141;51.398;21.154;2024-01-10T00:35:16;98.10;;;32.45;;
84879;SDS011;75141;51.398;21.154;2024-01-10T00:36:17;92.43;;;30.70;;
84879;SDS011;75141;51.398;21.154;2024-01-10T00:37:18;85.38;;;30.00;;
84879;SDS011;75141;51.398;21.154;2024-01-10T00:38:19;93.35;;;32.50;;
84879;SDS011;75141;51.398;21.154;2024-01-10T00:39:20;85.13;;;30.17;;
84879;SDS011;75141;51.398;21.154;2024-01-10T00:40:21;93.68;;;31.98;;
84879;SDS011;75141;51.398;21.154;2024-01-10T00:41:21;82.10;;;28.17;;
84879;SDS011;75141;51.398;21.154;2024-01-10T00:42:22;96.03;;;32.70;;
84879;SDS011;75141;51.398;21.154;2024-01-10T00:43:23;75.53;;;29.13;;
84879;SDS011;75141;51.398;21.154;2024-01-10T00:44:24;84.75;;;29.98;;
84879;SDS011;75141;51.398;21.154;2024-01-10T00:45:28;79.50;;;29.60;;
84879;SDS011;75141;51.398;21.154;2024-01-10T00:46:28;91.55;;;31.55;;
84879;SDS011;75141;51.398;21.154;2024-01-10T00:47:29;89.10;;;31.48;;
84879;SDS011;75141;51.398;21.154;2024-01-10T00:48:30;84.97;;;31.00;;
84879;SDS011;75141;51.398;21.154;2024-01-10T00:49:31;84.35;;;30.35;;
84879;SDS011;75141;51.398;21.154;2024-01-10T00:50:32;86.18;;;30.17;;
84879;SDS011;75141;51.398;21.154;2024-01-10T00:51:32;117.28;;;39.45;;
84879;SDS011;75141;51.398;21.154;2024-01-10T00:52:34;96.78;;;33.63;;
84879;SDS011;75141;51.398;21.154;2024-01-10T00:53:35;84.18;;;29.27;;
84879;SDS011;75141;51.398;21.154;2024-01-10T00:54:36;87.57;;;28.67;;
84879;SDS011;75141;51.398;21.154;2024-01-10T00:55:37;69.57;;;25.40;;
84879;SDS011;75141;51.398;21.154;2024-01-10T00:56:38;82.03;;;27.73;;
84879;SDS011;75141;51.398;21.154;2024-01-10T00:57:38;84.90;;;29.15;;
84879;SDS011;75141;51.398;21.154;2024-01-10T00:58:39;81.88;;;29.15;;
84879;SDS011;75141;51.398;21.154;2024-01-10T00:59:40;89.18;;;31.92;;
84879;SDS011;75141;51.398;21.154;2024-01-10T01:00:41;90.90;;;31.95;;
84879;SDS011;75141;51.398;21.154;2024-01-10T01:01:42;84.80;;;28.35;;
84879;SDS011;75141;51.398;21.154;2024-01-10T01:02:43;88.10;;;32.03;;
84879;SDS011;75141;51.398;21.154;2024-01-10T01:03:43;70.25;;;26.45;;
84879;SDS011;75141;51.398;21.154;2024-01-10T01:04:44;74.72;;;26.70;;
84879;SDS011;75141;51.398;21.154;2024-01-10T01:05:45;72.57;;;27.02;;
84879;SDS011;75141;51.398;21.154;2024-01-10T01:06:46;79.22;;;26.88;;
84879;SDS011;75141;51.398;21.154;2024-01-10T01:07:46;67.05;;;25.50;;
84879;SDS011;75141;51.398;21.154;2024-01-10T01:08:48;70.57;;;24.20;;
84879;SDS011;75141;51.398;21.154;2024-01-10T01:09:48;70.38;;;25.00;;
84879;SDS011;75141;51.398;21.154;2024-01-10T01:10:49;67.63;;;24.27;;
84879;SDS011;75141;51.398;21.154;2024-01-10T01:11:50;66.82;;;23.77;;
84879;SDS011;75141;51.398;21.154;2024-01-10T01:12:51;69.18;;;26.90;;
84879;SDS011;75141;51.398;21.154;2024-01-10T01:13:52;76.40;;;25.77;;
84879;SDS011;75141;51.398;21.154;2024-01-10T01:14:52;75.35;;;26.15;;
84879;SDS011;75141;51.398;21.154;2024-01-10T01:15:53;67.00;;;25.33;;
84879;SDS011;75141;51.398;21.154;2024-01-10T01:16:54;91.40;;;30.45;;
84879;SDS011;75141;51.398;21.154;2024-01-10T01:17:55;83.90;;;29.25;;
84879;SDS011;75141;51.398;21.154;2024-01-10T01:18:56;83.82;;;28.23;;
84879;SDS011;75141;51.398;21.154;2024-01-10T01:19:56;83.47;;;27.15;;
84879;SDS011;75141;51.398;21.154;2024-01-10T01:20:58;75.50;;;24.40;;
84879;SDS011;75141;51.398;21.154;2024-01-10T01:21:58;75.63;;;25.38;;
84879;SDS011;75141;51.398;21.154;2024-01-10T01:22:59;83.72;;;26.98;;
84879;SDS011;75141;51.398;21.154;2024-01-10T01:24:00;58.47;;;21.00;;
84879;SDS011;75141;51.398;21.154;2024-01-10T01:25:01;71.47;;;22.88;;
84879;SDS011;75141;51.398;21.154;2024-01-10T01:26:02;88.10;;;27.42;;
84879;SDS011;75141;51.398;21.154;2024-01-10T01:27:04;68.60;;;23.40;;
84879;SDS011;75141;51.398;21.154;2024-01-10T01:28:04;75.07;;;25.52;;
84879;SDS011;75141;51.398;21.154;2024-01-10T01:29:06;77.05;;;24.75;;
84879;SDS011;75141;51.398;21.154;2024-01-10T01:30:08;79.70;;;23.25;;
84879;SDS011;75141;51.398;21.154;2024-01-10T01:31:11;80.47;;;22.70;;
84879;SDS011;75141;51.398;21.154;2024-01-10T01:32:12;85.07;;;26.10;;
84879;SDS011;75141;51.398;21.154;2024-01-10T01:33:13;73.90;;;23.20;;
84879;SDS011;75141;51.398;21.154;2024-01-10T01:34:14;84.70;;;27.38;;
84879;SDS011;75141;51.398;21.154;2024-01-10T01:35:14;73.45;;;22.15;;
84879;SDS011;75141;51.398;21.154;2024-01-10T01:36:21;75.07;;;25.15;;
84879;SDS011;75141;51.398;21.154;2024-01-10T01:37:22;80.13;;;27.25;;
84879;SDS011;75141;51.398;21.154;2024-01-10T01:38:23;99.70;;;30.10;;
84879;SDS011;75141;51.398;21.154;2024-01-10T01:39:24;76.50;;;25.17;;
84879;SDS011;75141;51.398;21.154;2024-01-10T01:40:25;67.40;;;25.08;;
84879;SDS011;75141;51.398;21.154;2024-01-10T01:41:26;70.00;;;23.73;;
84879;SDS011;75141;51.398;21.154;2024-01-10T01:42:27;77.18;;;23.73;;
84879;SDS011;75141;51.398;21.154;2024-01-10T01:43:28;73.65;;;23.83;;
84879;SDS011;75141;51.398;21.154;2024-01-10T01:44:29;67.90;;;25.08;;
84879;SDS011;75141;51.398;21.154;2024-01-10T01:45:32;72.45;;;24.98;;
84879;SDS011;75141;51.398;21.154;2024-01-10T01:46:36;67.97;;;24.33;;
84879;SDS011;75141;51.398;21.154;2024-01-10T01:47:38;77.45;;;25.75;;
84879;SDS011;75141;51.398;21.154;2024-01-10T01:48:39;78.20;;;27.13;;
84879;SDS011;75141;51.398;21.154;2024-01-10T01:49:42;73.32;;;27.23;;
84879;SDS011;75141;51.398;21.154;2024-01-10T01:50:44;75.82;;;24.30;;
84879;SDS011;75141;51.398;21.154;2024-01-10T01:52:48;64.40;;;22.38;;
84879;SDS011;75141;51.398;21.154;2024-01-10T01:53:50;77.82;;;25.05;;
84879;SDS011;75141;51.398;21.154;2024-01-10T01:54:52;69.97;;;23.15;;
84879;SDS011;75141;51.398;21.154;2024-01-10T01:55:53;82.75;;;26.83;;
84879;SDS011;75141;51.398;21.154;2024-01-10T01:56:55;78.70;;;25.52;;
84879;SDS011;75141;51.398;21.154;2024-01-10T01:57:56;93.43;;;28.80;;
84879;SDS011;75141;51.398;21.154;2024-01-10T01:58:57;97.05;;;29.05;;
84879;SDS011;75141;51.398;21.154;2024-01-10T01:59:58;107.80;;;36.85;;
84879;SDS011;75141;51.398;21.154;2024-01-10T02:00:59;91.13;;;30.92;;
84879;SDS011;75141;51.398;21.154;2024-01-10T02:02:03;91.72;;;29.88;;
84879;SDS011;75141;51.398;21.154;2024-01-10T02:03:05;86.50;;;29.50;;
84879;SDS011;75141;51.398;21.154;2024-01-10T02:04:07;77.25;;;26.70;;
84879;SDS011;75141;51.398;21.154;2024-01-10T02:05:07;81.00;;;26.75;;
84879;SDS011;75141;51.398;21.154;2024-01-10T02:06:09;80.13;;;25.02;;
84879;SDS011;75141;51.398;21.154;2024-01-10T02:07:10;84.57;;;28.10;;
84879;SDS011;75141;51.398;21.154;2024-01-10T02:08:11;80.18;;;24.75;;
84879;SDS011;75141;51.398;21.154;2024-01-10T02:09:11;67.82;;;23.23;;
84879;SDS011;75141;51.398;21.154;2024-01-10T02:10:12;65.10;;;22.85;;
84879;SDS011;75141;51.398;21.154;2024-01-10T02:11:13;77.50;;;25.30;;
84879;SDS011;75141;51.398;21.154;2024-01-10T02:12:14;72.57;;;21.98;;
84879;SDS011;75141;51.398;21.154;2024-01-10T02:13:15;76.97;;;23.85;;
84879;SDS011;75141;51.398;21.154;2024-01-10T02:14:17;62.25;;;22.70;;
84879;SDS011;75141;51.398;21.154;2024-01-10T02:15:18;53.58;;;19.20;;
84879;SDS011;75141;51.398;21.154;2024-01-10T02:16:19;64.68;;;21.63;;
84879;SDS011;75141;51.398;21.154;2024-01-10T02:17:21;53.53;;;20.90;;
84879;SDS011;75141;51.398;21.154;2024-01-10T02:18:22;57.42;;;18.98;;
84879;SDS011;75141;51.398;21.154;2024-01-10T02:19:23;58.08;;;20.23;;
84879;SDS011;75141;51.398;21.154;2024-01-10T02:20:24;55.58;;;18.48;;
84879;SDS011;75141;51.398;21.154;2024-01-10T02:21:25;48.35;;;18.00;;
84879;SDS011;75141;51.398;21.154;2024-01-10T02:22:26;56.75;;;18.50;;
84879;SDS011;75141;51.398;21.154;2024-01-10T02:23:27;46.38;;;16.25;;
84879;SDS011;75141;51.398;21.154;2024-01-10T02:24:27;56.75;;;19.58;;
84879;SDS011;75141;51.398;21.154;2024-01-10T02:25:28;50.38;;;19.98;;
84879;SDS011;75141;51.398;21.154;2024-01-10T02:26:29;64.85;;;20.17;;
84879;SDS011;75141;51.398;21.154;2024-01-10T02:27:30;52.65;;;18.92;;
84879;SDS011;75141;51.398;21.154;2024-01-10T02:28:31;61.72;;;20.67;;
84879;SDS011;75141;51.398;21.154;2024-01-10T02:29:31;47.08;;;17.85;;
84879;SDS011;75141;51.398;21.154;2024-01-10T02:30:35;59.65;;;19.98;;
84879;SDS011;75141;51.398;21.154;2024-01-10T02:31:36;48.15;;;19.45;;
84879;SDS011;75141;51.398;21.154;2024-01-10T02:32:36;57.22;;;19.45;;
84879;SDS011;75141;51.398;21.154;2024-01-10T02:33:38;65.80;;;19.88;;
84879;SDS011;75141;51.398;21.154;2024-01-10T02:34:40;59.70;;;20.85;;
84879;SDS011;75141;51.398;21.154;2024-01-10T02:35:40;58.92;;;20.88;;
84879;SDS011;75141;51.398;21.154;2024-01-10T02:36:41;53.47;;;18.52;;
84879;SDS011;75141;51.398;21.154;2024-01-10T02:37:41;62.70;;;22.02;;
84879;SDS011;75141;51.398;21.154;2024-01-10T02:38:42;67.35;;;22.48;;
84879;SDS011;75141;51.398;21.154;2024-01-10T02:39:43;55.72;;;19.77;;
84879;SDS011;75141;51.398;21.154;2024-01-10T02:40:44;68.80;;;23.27;;
84879;SDS011;75141;51.398;21.154;2024-01-10T02:41:44;55.33;;;19.15;;
84879;SDS011;75141;51.398;21.154;2024-01-10T02:42:46;57.65;;;21.23;;
84879;SDS011;75141;51.398;21.154;2024-01-10T02:43:47;63.63;;;21.75;;
84879;SDS011;75141;51.398;21.154;2024-01-10T02:44:47;62.78;;;22.33;;
84879;SDS011;75141;51.398;21.154;2024-01-10T02:45:48;62.72;;;24.33;;
84879;SDS011;75141;51.398;21.154;2024-01-10T02:46:49;62.22;;;21.13;;
84879;SDS011;75141;51.398;21.154;2024-01-10T02:47:50;69.80;;;22.92;;
84879;SDS011;75141;51.398;21.154;2024-01-10T02:48:50;71.68;;;25.02;;
84879;SDS011;75141;51.398;21.154;2024-01-10T02:49:51;69.57;;;25.35;;
84879;SDS011;75141;51.398;21.154;2024-01-10T02:50:52;74.10;;;23.48;;
84879;SDS011;75141;51.398;21.154;2024-01-10T02:51:54;67.07;;;23.98;;
84879;SDS011;75141;51.398;21.154;2024-01-10T02:52:55;79.65;;;26.45;;
84879;SDS011;75141;51.398;21.154;2024-01-10T02:53:56;70.40;;;27.73;;
84879;SDS011;75141;51.398;21.154;2024-01-10T02:54:57;70.50;;;24.55;;
84879;SDS011;75141;51.398;21.154;2024-01-10T02:55:58;68.53;;;24.85;;
84879;SDS011;75141;51.398;21.154;2024-01-10T02:56:58;66.18;;;23.90;;
84879;SDS011;75141;51.398;21.154;2024-01-10T02:57:59;74.05;;;24.88;;
84879;SDS011;75141;51.398;21.154;2024-01-10T02:59:03;66.80;;;22.58;;
84879;SDS011;75141;51.398;21.154;2024-01-10T03:00:04;60.55;;;22.67;;
84879;SDS011;75141;51.398;21.154;2024-01-10T03:01:06;64.63;;;21.15;;
84879;SDS011;75141;51.398;21.154;2024-01-10T03:02:07;56.28;;;20.10;;
84879;SDS011;75141;51.398;21.154;2024-01-10T03:03:08;53.08;;;18.65;;
84879;SDS011;75141;51.398;21.154;2024-01-10T03:04:09;68.80;;;24.05;;
84879;SDS011;75141;51.398;21.154;2024-01-10T03:05:10;68.97;;;22.95;;
84879;SDS011;75141;51.398;21.154;2024-01-10T03:06:10;61.47;;;21.23;;
84879;SDS011;75141;51.398;21.154;2024-01-10T03:07:11;74.45;;;22.45;;
84879;SDS011;75141;51.398;21.154;2024-01-10T03:08:12;62.60;;;20.98;;
84879;SDS011;75141;51.398;21.154;2024-01-10T03:09:13;57.88;;;20.98;;
84879;SDS011;75141;51.398;21.154;2024-01-10T03:10:14;56.03;;;22.00;;
84879;SDS011;75141;51.398;21.154;2024-01-10T03:11:17;63.25;;;23.08;;
84879;SDS011;75141;51.398;21.154;2024-01-10T03:12:21;69.13;;;23.65;;
84879;SDS011;75141;51.398;21.154;2024-01-10T03:13:22;58.75;;;21.95;;
84879;SDS011;75141;51.398;21.154;2024-01-10T03:14:25;65.70;;;21.83;;
84879;SDS011;75141;51.398;21.154;2024-01-10T03:15:26;68.68;;;25.65;;
84879;SDS011;75141;51.398;21.154;2024-01-10T03:16:27;58.35;;;23.83;;
84879;SDS011;75141;51.398;21.154;2024-01-10T03:17:28;74.30;;;26.23;;
84879;SDS011;75141;51.398;21.154;2024-01-10T03:18:30;73.70;;;25.83;;
84879;SDS011;75141;51.398;21.154;2024-01-10T03:19:31;66.55;;;24.48;;
84879;SDS011;75141;51.398;21.154;2024-01-10T03:20:32;66.47;;;23.67;;
84879;SDS011;75141;51.398;21.154;2024-01-10T03:21:32;74.07;;;24.85;;
84879;SDS011;75141;51.398;21.154;2024-01-10T03:22:34;82.88;;;25.08;;
84879;SDS011;75141;51.398;21.154;2024-01-10T03:23:35;69.22;;;22.33;;
84879;SDS011;75141;51.398;21.154;2024-01-10T03:24:36;72.35;;;23.83;;
84879;SDS011;75141;51.398;21.154;2024-01-10T03:25:36;63.53;;;23.25;;
84879;SDS011;75141;51.398;21.154;2024-01-10T03:26:37;60.17;;;22.00;;
84879;SDS011;75141;51.398;21.154;2024-01-10T03:27:38;66.50;;;24.38;;
84879;SDS011;75141;51.398;21.154;2024-01-10T03:28:39;64.57;;;23.38;;
84879;SDS011;75141;51.398;21.154;2024-01-10T03:29:40;67.05;;;23.30;;
84879;SDS011;75141;51.398;21.154;2024-01-10T03:30:40;73.30;;;22.60;;
84879;SDS011;75141;51.398;21.154;2024-01-10T03:31:41;66.07;;;22.75;;
84879;SDS011;75141;51.398;21.154;2024-01-10T03:32:42;58.70;;;21.70;;
84879;SDS011;75141;51.398;21.154;2024-01-10T03:33:43;67.22;;;23.40;;
84879;SDS011;75141;51.398;21.154;2024-01-10T03:34:44;65.43;;;23.98;;
84879;SDS011;75141;51.398;21.154;2024-01-10T03:35:45;63.72;;;22.63;;
84879;SDS011;75141;51.398;21.154;2024-01-10T03:36:45;62.58;;;25.05;;
84879;SDS011;75141;51.398;21.154;2024-01-10T03:37:46;63.65;;;22.88;;
84879;SDS011;75141;51.398;21.154;2024-01-10T03:38:47;68.00;;;20.80;;
84879;SDS011;75141;51.398;21.154;2024-01-10T03:39:48;56.55;;;20.40;;
84879;SDS011;75141;51.398;21.154;2024-01-10T03:40:49;59.65;;;21.98;;
84879;SDS011;75141;51.398;21.154;2024-01-10T03:41:49;57.58;;;21.65;;
84879;SDS011;75141;51.398;21.154;2024-01-10T03:42:50;59.53;;;23.15;;
84879;SDS011;75141;51.398;21.154;2024-01-10T03:43:51;57.90;;;22.15;;
84879;SDS011;75141;51.398;21.154;2024-01-10T03:44:55;53.65;;;19.20;;
84879;SDS011;75141;51.398;21.154;2024-01-10T03:45:59;60.65;;;22.15;;
84879;SDS011;75141;51.398;21.154;2024-01-10T03:47:00;62.55;;;22.58;;
84879;SDS011;75141;51.398;21.154;2024-01-10T03:48:01;60.42;;;22.13;;
84879;SDS011;75141;51.398;21.154;2024-01-10T03:49:01;66.80;;;23.73;;
84879;SDS011;75141;51.398;21.154;2024-01-10T03:50:02;67.80;;;22.88;;
84879;SDS011;75141;51.398;21.154;2024-01-10T03:51:03;65.60;;;22.85;;
84879;SDS011;75141;51.398;21.154;2024-01-10T03:52:04;59.15;;;21.35;;
84879;SDS011;75141;51.398;21.154;2024-01-10T03:53:05;65.55;;;23.30;;
84879;SDS011;75141;51.398;21.154;2024-01-10T03:54:06;61.85;;;21.58;;
84879;SDS011;75141;51.398;21.154;2024-01-10T03:55:09;65.63;;;22.80;;
84879;SDS011;75141;51.398;21.154;2024-01-10T03:56:11;55.22;;;22.48;;
84879;SDS011;75141;51.398;21.154;2024-01-10T03:57:13;64.30;;;23.35;;
84879;SDS011;75141;51.398;21.154;2024-01-10T03:58:13;59.40;;;22.23;;
84879;SDS011;75141;51.398;21.154;2024-01-10T03:59:14;64.50;;;23.63;;
84879;SDS011;75141;51.398;21.154;2024-01-10T04:00:15;64.03;;;23.55;;
84879;SDS011;75141;51.398;21.154;2024-01-10T04:01:16;70.30;;;24.50;;
84879;SDS011;75141;51.398;21.154;2024-01-10T04:02:22;74.90;;;24.92;;
84879;SDS011;75141;51.398;21.154;2024-01-10T04:03:22;66.07;;;24.20;;
84879;SDS011;75141;51.398;21.154;2024-01-10T04:04:24;65.88;;;26.52;;
84879;SDS011;75141;51.398;21.154;2024-01-10T04:05:24;63.78;;;25.25;;
84879;SDS011;75141;51.398;21.154;2024-01-10T04:06:25;66.65;;;24.60;;
84879;SDS011;75141;51.398;21.154;2024-01-10T04:07:28;56.45;;;21.95;;
84879;SDS011;75141;51.398;21.154;2024-01-10T04:08:29;67.22;;;23.65;;
84879;SDS011;75141;51.398;21.154;2024-01-10T04:09:29;61.72;;;24.05;;
84879;SDS011;75141;51.398;21.154;2024-01-10T04:10:30;53.13;;;21.55;;
84879;SDS011;75141;51.398;21.154;2024-01-10T04:11:31;64.65;;;23.08;;
84879;SDS011;75141;51.398;21.154;2024-01-10T04:12:32;53.55;;;21.02;;
84879;SDS011;75141;51.398;21.154;2024-01-10T04:13:33;64.40;;;22.55;;
84879;SDS011;75141;51.398;21.154;2024-01-10T04:14:34;58.78;;;24.23;;
84879;SDS011;75141;51.398;21.154;2024-01-10T04:15:37;55.05;;;22.27;;
84879;SDS011;75141;51.398;21.154;2024-01-10T04:16:41;49.70;;;20.08;;
84879;SDS011;75141;51.398;21.154;2024-01-10T04:17:48;53.60;;;19.40;;
84879;SDS011;75141;51.398;21.154;2024-01-10T04:18:49;59.83;;;22.30;;
84879;SDS011;75141;51.398;21.154;2024-01-10T04:19:50;55.90;;;21.10;;
84879;SDS011;75141;51.398;21.154;2024-01-10T04:20:51;50.60;;;19.05;;
84879;SDS011;75141;51.398;21.154;2024-01-10T04:21:52;54.45;;;20.05;;
84879;SDS011;75141;51.398;21.154;2024-01-10T04:22:53;46.67;;;18.75;;
84879;SDS011;75141;51.398;21.154;2024-01-10T04:23:53;48.40;;;17.85;;
84879;SDS011;75141;51.398;21.154;2024-01-10T04:24:58;49.80;;;17.05;;
84879;SDS011;75141;51.398;21.154;2024-01-10T04:26:00;49.10;;;18.40;;
84879;SDS011;75141;51.398;21.154;2024-01-10T04:27:03;48.88;;;18.77;;
84879;SDS011;75141;51.398;21.154;2024-01-10T04:28:04;56.58;;;19.35;;
84879;SDS011;75141;51.398;21.154;2024-01-10T04:29:06;57.38;;;20.80;;
84879;SDS011;75141;51.398;21.154;2024-01-10T04:30:06;58.85;;;20.80;;
84879;SDS011;75141;51.398;21.154;2024-01-10T04:31:08;49.72;;;19.05;;
84879;SDS011;75141;51.398;21.154;2024-01-10T04:32:09;52.58;;;20.17;;
84879;SDS011;75141;51.398;21.154;2024-01-10T04:33:10;61.53;;;20.42;;
84879;SDS011;75141;51.398;21.154;2024-01-10T04:34:11;51.13;;;20.98;;
84879;SDS011;75141;51.398;21.154;2024-01-10T04:35:12;66.82;;;23.95;;
84879;SDS011;75141;51.398;21.154;2024-01-10T04:37:16;51.05;;;19.08;;
84879;SDS011;75141;51.398;21.154;2024-01-10T04:38:17;46.70;;;18.95;;
84879;SDS011;75141;51.398;21.154;2024-01-10T04:39:18;56.25;;;17.80;;
84879;SDS011;75141;51.398;21.154;2024-01-10T04:40:23;51.45;;;20.77;;
84879;SDS011;75141;51.398;21.154;2024-01-10T04:41:27;49.80;;;19.83;;
84879;SDS011;75141;51.398;21.154;2024-01-10T04:42:28;56.45;;;20.52;;
84879;SDS011;75141;51.398;21.154;2024-01-10T04:43:30;43.15;;;18.40;;
84879;SDS011;75141;51.398;21.154;2024-01-10T04:44:34;51.40;;;20.60;;
84879;SDS011;75141;51.398;21.154;2024-01-10T04:45:42;43.35;;;17.38;;
84879;SDS011;75141;51.398;21.154;2024-01-10T04:46:43;46.95;;;19.13;;
84879;SDS011;75141;51.398;21.154;2024-01-10T04:47:44;48.40;;;17.65;;
84879;SDS011;75141;51.398;21.154;2024-01-10T04:48:45;47.60;;;20.05;;
84879;SDS011;75141;51.398;21.154;2024-01-10T04:49:46;52.42;;;20.65;;
84879;SDS011;75141;51.398;21.154;2024-01-10T04:50:47;51.40;;;19.88;;
84879;SDS011;75141;51.398;21.154;2024-01-10T04:51:48;45.35;;;16.23;;
84879;SDS011;75141;51.398;21.154;2024-01-10T04:52:49;45.35;;;16.77;;
84879;SDS011;75141;51.398;21.154;2024-01-10T04:53:50;56.47;;;22.63;;
84879;SDS011;75141;51.398;21.154;2024-01-10T04:54:51;46.30;;;17.35;;
84879;SDS011;75141;51.398;21.154;2024-01-10T04:55:51;54.92;;;19.92;;
84879;SDS011;75141;51.398;21.154;2024-01-10T04:56:52;45.28;;;14.27;;
84879;SDS011;75141;51.398;21.154;2024-01-10T04:57:53;75.93;;;25.80;;
84879;SDS011;75141;51.398;21.154;2024-01-10T04:58:53;46.97;;;18.48;;
84879;SDS011;75141;51.398;21.154;2024-01-10T04:59:54;51.33;;;16.85;;
84879;SDS011;75141;51.398;21.154;2024-01-10T05:00:55;46.25;;;19.50;;
84879;SDS011;75141;51.398;21.154;2024-01-10T05:01:56;51.83;;;19.15;;
84879;SDS011;75141;51.398;21.154;2024-01-10T05:02:57;41.30;;;18.58;;
84879;SDS011;75141;51.398;21.154;2024-01-10T05:03:58;47.38;;;18.45;;
84879;SDS011;75141;51.398;21.154;2024-01-10T05:04:58;49.38;;;20.60;;
84879;SDS011;75141;51.398;21.154;2024-01-10T05:06:00;35.70;;;14.65;;
84879;SDS011;75141;51.398;21.154;2024-01-10T05:07:00;45.63;;;18.85;;
84879;SDS011;75141;51.398;21.154;2024-01-10T05:08:01;45.40;;;16.13;;
84879;SDS011;75141;51.398;21.154;2024-01-10T05:09:02;43.47;;;17.08;;
84879;SDS011;75141;51.398;21.154;2024-01-10T05:10:07;50.97;;;16.60;;
84879;SDS011;75141;51.398;21.154;2024-01-10T05:11:07;38.28;;;16.05;;
84879;SDS011;75141;51.398;21.154;2024-01-10T05:12:08;44.72;;;17.55;;
84879;SDS011;75141;51.398;21.154;2024-01-10T05:13:09;42.80;;;16.50;;
84879;SDS011;75141;51.398;21.154;2024-01-10T05:14:13;40.25;;;15.23;;
84879;SDS011;75141;51.398;21.154;2024-01-10T05:15:19;42.08;;;18.85;;
84879;SDS011;75141;51.398;21.154;2024-01-10T05:16:20;52.58;;;18.90;;
84879;SDS011;75141;51.398;21.154;2024-01-10T05:17:20;48.00;;;16.60;;
84879;SDS011;75141;51.398;21.154;2024-01-10T05:18:21;53.80;;;19.38;;
84879;SDS011;75141;51.398;21.154;2024-01-10T05:19:22;46.80;;;17.88;;
84879;SDS011;75141;51.398;21.154;2024-01-10T05:20:23;37.75;;;14.27;;
84879;SDS011;75141;51.398;21.154;2024-01-10T05:21:23;50.33;;;18.85;;
84879;SDS011;75141;51.398;21.154;2024-01-10T05:22:25;52.22;;;19.95;;
84879;SDS011;75141;51.398;21.154;2024-01-10T05:23:26;50.90;;;20.42;;
84879;SDS011;75141;51.398;21.154;2024-01-10T05:24:27;57.00;;;19.50;;
84879;SDS011;75141;51.398;21.154;2024-01-10T05:25:28;52.63;;;21.38;;
84879;SDS011;75141;51.398;21.154;2024-01-10T05:26:30;61.35;;;21.70;;
84879;SDS011;75141;51.398;21.154;2024-01-10T05:27:33;62.50;;;23.65;;
84879;SDS011;75141;51.398;21.154;2024-01-10T05:28:34;54.10;;;18.33;;
84879;SDS011;75141;51.398;21.154;2024-01-10T05:29:37;50.40;;;20.90;;
84879;SDS011;75141;51.398;21.154;2024-01-10T05:30:41;47.40;;;18.95;;
84879;SDS011;75141;51.398;21.154;2024-01-10T05:32:04;41.38;;;18.75;;
84879;SDS011;75141;51.398;21.154;2024-01-10T05:33:05;48.08;;;20.42;;
84879;SDS011;75141;51.398;21.154;2024-01-10T05:34:06;55.10;;;18.08;;
84879;SDS011;75141;51.398;21.154;2024-01-10T05:35:07;51.10;;;20.08;;
84879;SDS011;75141;51.398;21.154;2024-01-10T05:36:14;47.50;;;17.98;;
84879;SDS011;75141;51.398;21.154;2024-01-10T05:37:14;51.55;;;18.15;;
84879;SDS011;75141;51.398;21.154;2024-01-10T05:38:15;52.67;;;19.13;;
84879;SDS011;75141;51.398;21.154;2024-01-10T05:39:16;62.08;;;21.38;;
84879;SDS011;75141;51.398;21.154;2024-01-10T05:40:21;58.85;;;21.77;;
84879;SDS011;75141;51.398;21.154;2024-01-10T05:41:21;56.65;;;18.95;;
84879;SDS011;75141;51.398;21.154;2024-01-10T05:42:22;58.20;;;21.80;;
84879;SDS011;75141;51.398;21.154;2024-01-10T05:43:23;50.67;;;18.63;;
84879;SDS011;75141;51.398;21.154;2024-01-10T05:44:25;56.38;;;19.88;;
84879;SDS011;75141;51.398;21.154;2024-01-10T05:45:26;57.58;;;22.33;;
84879;SDS011;75141;51.398;21.154;2024-01-10T05:46:28;54.05;;;21.83;;
84879;SDS011;75141;51.398;21.154;2024-01-10T05:47:29;54.25;;;21.10;;
84879;SDS011;75141;51.398;21.154;2024-01-10T05:48:30;68.28;;;22.65;;
84879;SDS011;75141;51.398;21.154;2024-01-10T05:49:32;52.95;;;22.60;;
84879;SDS011;75141;51.398;21.154;2024-01-10T05:50:33;55.58;;;19.65;;
84879;SDS011;75141;51.398;21.154;2024-01-10T05:51:34;58.03;;;19.35;;
84879;SDS011;75141;51.398;21.154;2024-01-10T05:52:34;66.05;;;21.98;;
84879;SDS011;75141;51.398;21.154;2024-01-10T05:53:35;61.25;;;22.23;;
84879;SDS011;75141;51.398;21.154;2024-01-10T05:54:36;74.15;;;25.00;;
84879;SDS011;75141;51.398;21.154;2024-01-10T05:55:37;70.05;;;22.85;;